createdAt,value
2022-08-26T00:01:19.137Z,63.06
2022-08-26T00:03:55.769Z,63.18
2022-08-26T00:06:22.092Z,63.48
2022-08-26T00:08:49.009Z,63.96
2022-08-26T00:11:15.390Z,64.15
2022-08-26T00:13:56.907Z,63.78
2022-08-26T00:16:25.035Z,63.69
2022-08-26T00:18:52.462Z,63.69
2022-08-26T00:21:19.691Z,63.76
2022-08-26T00:23:46.330Z,63.67
2022-08-26T00:26:13.748Z,63.62
2022-08-26T00:28:40.605Z,63.59
2022-08-26T00:31:07.268Z,63.72
2022-08-26T00:33:33.849Z,64.21
2022-08-26T00:36:00.961Z,64.41
2022-08-26T00:38:27.560Z,64.39
2022-08-26T00:40:56.086Z,64.17
2022-08-26T00:43:24.846Z,64.09
2022-08-26T00:45:55.772Z,64.01
2022-08-26T00:48:24.806Z,64.09
2022-08-26T00:50:57.923Z,63.81
2022-08-26T00:53:28.537Z,63.77
2022-08-26T00:56:07.173Z,64.12
2022-08-26T00:58:37.110Z,64.53
2022-08-26T01:01:04.398Z,64.64
2022-08-26T01:03:33.588Z,64.56
2022-08-26T01:06:00.964Z,64.43
2022-08-26T01:08:27.464Z,64.33
2022-08-26T01:10:55.893Z,64.57
2022-08-26T01:13:22.614Z,64.05
2022-08-26T01:15:53.221Z,63.93
2022-08-26T01:18:19.943Z,63.88
2022-08-26T01:21:02.993Z,63.53
2022-08-26T01:23:37.423Z,64.03
2022-08-26T01:26:19.679Z,63.92
2022-08-26T01:28:50.596Z,63.37
2022-08-26T01:31:21.237Z,63.54
2022-08-26T01:34:01.363Z,63.82
2022-08-26T01:36:28.361Z,64.17
2022-08-26T01:38:54.744Z,64.27
2022-08-26T01:41:27.499Z,64.12
2022-08-26T01:43:56.609Z,64.27
2022-08-26T01:46:25.687Z,64.57
2022-08-26T01:48:54.660Z,64.58
2022-08-26T01:51:22.958Z,64.70
2022-08-26T01:53:50.057Z,64.74
2022-08-26T01:56:16.448Z,64.62
2022-08-26T01:58:46.694Z,64.65
2022-08-26T02:01:14.383Z,64.81
2022-08-26T02:04:02.972Z,64.90
2022-08-26T02:06:29.606Z,64.79
2022-08-26T02:08:59.672Z,65.10
2022-08-26T02:11:27.083Z,64.90
2022-08-26T02:13:57.693Z,64.60
2022-08-26T02:16:26.836Z,64.48
2022-08-26T02:18:53.762Z,64.24
2022-08-26T02:21:20.724Z,64.17
2022-08-26T02:23:47.141Z,63.37
2022-08-26T02:26:18.123Z,63.96
2022-08-26T02:28:48.891Z,64.66
2022-08-26T02:31:15.823Z,64.92
2022-08-26T02:33:43.181Z,65.00
2022-08-26T02:36:10.758Z,65.09
2022-08-26T02:38:39.756Z,65.20
2022-08-26T02:41:06.292Z,65.48
2022-08-26T02:43:34.421Z,65.37
2022-08-26T02:46:02.376Z,65.53
2022-08-26T02:48:29.351Z,65.65
2022-08-26T02:50:58.368Z,65.41
2022-08-26T02:53:25.545Z,65.27
2022-08-26T02:55:52.543Z,65.29
2022-08-26T02:58:20.044Z,65.42
2022-08-26T03:00:53.085Z,65.51
2022-08-26T03:03:22.481Z,65.44
2022-08-26T03:05:50.906Z,65.60
2022-08-26T03:08:17.564Z,65.26
2022-08-26T03:10:43.884Z,65.77
2022-08-26T03:13:10.366Z,65.40
2022-08-26T03:15:36.861Z,65.69
2022-08-26T03:18:04.604Z,65.68
2022-08-26T03:20:31.455Z,65.87
2022-08-26T03:22:57.770Z,65.95
2022-08-26T03:25:25.956Z,65.92
2022-08-26T03:27:52.702Z,65.65
2022-08-26T03:30:38.035Z,65.04
2022-08-26T03:33:04.911Z,64.61
2022-08-26T03:35:32.451Z,65.17
2022-08-26T03:37:59.143Z,65.35
2022-08-26T03:40:25.716Z,65.71
2022-08-26T03:42:55.576Z,65.59
2022-08-26T03:45:21.925Z,65.88
2022-08-26T03:47:48.511Z,65.95
2022-08-26T03:50:22.619Z,65.90
2022-08-26T03:52:51.448Z,65.96
2022-08-26T03:55:19.751Z,65.82
2022-08-26T03:57:50.919Z,65.80
2022-08-26T04:00:18.481Z,65.83
2022-08-26T04:02:48.058Z,65.59
2022-08-26T04:05:15.350Z,65.56
2022-08-26T04:07:42.724Z,65.53
2022-08-26T04:10:11.289Z,65.96
2022-08-26T04:12:38.535Z,66.15
2022-08-26T04:15:08.828Z,66.16
2022-08-26T04:17:35.845Z,65.85
2022-08-26T04:20:05.043Z,65.94
2022-08-26T04:22:33.380Z,65.74
2022-08-26T04:25:01.083Z,65.79
2022-08-26T04:27:27.455Z,65.81
2022-08-26T04:29:55.277Z,65.70
2022-08-26T04:32:21.963Z,65.77
2022-08-26T04:34:48.862Z,65.76
2022-08-26T04:37:15.683Z,64.80
2022-08-26T04:39:42.296Z,64.86
2022-08-26T04:42:10.750Z,65.14
2022-08-26T04:44:37.838Z,65.59
2022-08-26T04:47:05.925Z,65.91
2022-08-26T04:49:35.095Z,65.45
2022-08-26T04:52:04.780Z,65.39
2022-08-26T04:54:31.317Z,65.29
2022-08-26T04:56:57.880Z,64.95
2022-08-26T04:59:24.678Z,64.76
2022-08-26T05:01:55.585Z,64.52
2022-08-26T05:04:22.249Z,64.19
2022-08-26T05:06:49.170Z,64.23
2022-08-26T05:09:17.761Z,64.05
2022-08-26T05:11:45.326Z,63.61
2022-08-26T05:14:15.556Z,63.12
2022-08-26T05:16:41.990Z,62.08
2022-08-26T05:19:09.298Z,62.39
2022-08-26T05:21:35.884Z,62.76
2022-08-26T05:24:02.401Z,61.98
2022-08-26T05:26:31.245Z,62.21
2022-08-26T05:28:58.305Z,61.59
2022-08-26T05:31:28.514Z,61.74
2022-08-26T05:33:56.881Z,61.04
2022-08-26T05:36:26.919Z,60.57
2022-08-26T05:38:54.433Z,60.52
2022-08-26T05:41:34.483Z,60.32
2022-08-26T05:44:06.109Z,58.67
2022-08-26T05:46:33.763Z,58.44
2022-08-26T05:49:01.203Z,58.53
2022-08-26T05:51:29.225Z,58.01
2022-08-26T05:53:58.227Z,58.35
2022-08-26T05:56:26.679Z,56.29
2022-08-26T05:58:54.371Z,57.48
2022-08-26T06:01:24.987Z,56.88
2022-08-26T06:03:54.025Z,57.82
2022-08-26T06:06:27.355Z,58.61
2022-08-26T06:08:55.371Z,58.64
2022-08-26T06:11:24.748Z,59.68
2022-08-26T06:13:57.105Z,60.40
2022-08-26T06:16:27.810Z,60.50
2022-08-26T06:18:54.368Z,61.00
2022-08-26T06:21:22.813Z,59.65
2022-08-26T06:24:10.764Z,60.47
2022-08-26T06:26:37.502Z,59.57
2022-08-26T06:29:05.065Z,60.45
2022-08-26T06:31:33.702Z,59.93
2022-08-26T06:34:00.855Z,59.41
2022-08-26T06:36:29.976Z,60.01
2022-08-26T06:38:58.607Z,59.10
2022-08-26T06:41:25.171Z,59.29
2022-08-26T06:43:52.084Z,59.65
2022-08-26T06:46:21.010Z,59.35
2022-08-26T06:48:49.211Z,59.52
2022-08-26T06:51:22.440Z,58.29
2022-08-26T06:53:52.041Z,58.14
2022-08-26T06:56:23.928Z,56.77
2022-08-26T06:58:51.706Z,55.55
2022-08-26T07:01:21.469Z,54.33
2022-08-26T07:03:50.157Z,53.27
2022-08-26T07:06:18.845Z,53.11
2022-08-26T07:08:46.602Z,53.53
2022-08-26T07:11:14.574Z,51.62
2022-08-26T07:13:41.096Z,51.90
2022-08-26T07:16:12.398Z,51.51
2022-08-26T07:18:41.753Z,51.40
2022-08-26T07:21:14.212Z,50.10
2022-08-26T07:23:41.349Z,50.65
2022-08-26T07:26:12.426Z,49.73
2022-08-26T07:28:38.869Z,48.67
2022-08-26T07:31:07.396Z,49.26
2022-08-26T07:33:38.112Z,48.26
2022-08-26T07:36:07.704Z,47.40
2022-08-26T07:38:34.342Z,47.78
2022-08-26T07:41:01.301Z,46.77
2022-08-26T07:43:28.423Z,46.91
2022-08-26T07:45:56.129Z,48.04
2022-08-26T07:48:23.718Z,47.75
2022-08-26T07:50:52.006Z,46.21
2022-08-26T07:53:20.955Z,46.49
2022-08-26T07:55:48.763Z,45.65
2022-08-26T07:58:15.642Z,46.44
2022-08-26T08:00:42.573Z,45.88
2022-08-26T08:03:10.236Z,43.42
2022-08-26T08:05:37.004Z,43.64
2022-08-26T08:08:26.263Z,44.28
2022-08-26T08:10:55.471Z,44.56
2022-08-26T08:13:23.625Z,44.35
2022-08-26T08:15:50.425Z,43.59
2022-08-26T08:18:20.493Z,41.35
2022-08-26T08:21:04.835Z,41.62
2022-08-26T08:23:34.085Z,42.21
2022-08-26T08:26:06.140Z,41.05
2022-08-26T08:28:35.621Z,41.47
2022-08-26T08:31:02.643Z,41.27
2022-08-26T08:33:29.866Z,39.99
2022-08-26T08:35:57.623Z,40.23
2022-08-26T08:38:24.706Z,41.41
2022-08-26T08:40:51.104Z,41.00
2022-08-26T08:43:29.299Z,39.32
2022-08-26T08:45:58.805Z,39.57
2022-08-26T08:48:29.120Z,37.63
2022-08-26T08:51:21.425Z,34.16
2022-08-26T08:53:50.952Z,33.01
2022-08-26T08:56:31.664Z,28.97
2022-08-26T08:59:17.696Z,26.88
2022-08-26T09:01:52.477Z,26.09
2022-08-26T09:04:29.588Z,22.59
2022-08-26T09:06:59.245Z,21.92
2022-08-26T09:09:39.148Z,18.87
2022-08-26T09:12:12.091Z,21.75
2022-08-26T09:14:38.631Z,18.04
2022-08-26T09:17:24.708Z,15.22
2022-08-26T09:20:03.658Z,18.53
2022-08-26T09:22:33.835Z,14.62
2022-08-26T09:25:01.425Z,13.51
2022-08-26T09:27:50.540Z,14.43
2022-08-26T09:30:26.682Z,13.41
2022-08-26T09:33:01.826Z,14.75
2022-08-26T09:35:30.931Z,15.05
2022-08-26T09:37:58.154Z,14.17
2022-08-26T09:40:34.913Z,16.24
2022-08-26T09:43:07.079Z,15.17
2022-08-26T09:45:35.191Z,14.91
2022-08-26T09:48:02.703Z,16.49
2022-08-26T09:50:32.536Z,14.47
2022-08-26T09:53:12.823Z,14.30
2022-08-26T09:55:42.239Z,14.71
2022-08-26T09:58:13.927Z,14.33
2022-08-26T10:00:55.507Z,15.13
2022-08-26T10:03:28.615Z,15.45
2022-08-26T10:06:07.678Z,15.10
2022-08-26T10:08:47.428Z,15.34
2022-08-26T10:11:37.105Z,15.13
2022-08-26T10:14:12.251Z,15.91
2022-08-26T10:16:49.133Z,14.89
2022-08-26T10:19:24.980Z,14.27
2022-08-26T10:22:00.919Z,14.24
2022-08-26T10:24:46.584Z,15.00
2022-08-26T10:27:51.075Z,16.08
2022-08-26T10:30:22.411Z,16.05
2022-08-26T10:32:57.578Z,15.64
2022-08-26T10:35:26.374Z,15.77
2022-08-26T10:37:56.097Z,15.97
2022-08-26T10:40:40.809Z,16.04
2022-08-26T10:43:17.244Z,16.76
2022-08-26T10:45:50.539Z,16.99
2022-08-26T10:48:24.895Z,17.57
2022-08-26T10:50:51.464Z,16.39
2022-08-26T10:54:00.018Z,16.87
2022-08-26T10:56:39.905Z,16.82
2022-08-26T10:59:12.440Z,17.36
2022-08-26T11:01:51.122Z,17.88
2022-08-26T11:04:28.274Z,18.96
2022-08-26T11:07:29.584Z,18.91
2022-08-26T11:10:16.257Z,20.18
2022-08-26T11:12:44.667Z,19.94
2022-08-26T11:15:18.728Z,19.78
2022-08-26T11:17:50.735Z,19.90
2022-08-26T11:20:35.949Z,19.95
2022-08-26T11:23:23.385Z,19.55
2022-08-26T11:26:18.935Z,19.36
2022-08-26T11:29:03.043Z,19.98
2022-08-26T11:31:30.079Z,19.68
2022-08-26T11:34:08.718Z,18.97
2022-08-26T11:36:46.284Z,19.87
2022-08-26T11:39:27.861Z,20.17
2022-08-26T11:42:15.909Z,20.31
2022-08-26T11:44:49.565Z,20.50
2022-08-26T11:47:26.076Z,21.02
2022-08-26T11:50:09.832Z,21.59
2022-08-26T11:52:36.626Z,21.52
2022-08-26T11:55:14.847Z,22.16
2022-08-26T11:57:53.545Z,22.47
2022-08-26T12:00:22.512Z,22.95
2022-08-26T12:02:50.961Z,23.13
2022-08-26T12:05:30.917Z,23.28
2022-08-26T12:08:02.400Z,23.70
2022-08-26T12:10:32.005Z,24.42
2022-08-26T12:13:00.502Z,24.73
2022-08-26T12:15:29.743Z,24.46
2022-08-26T12:17:58.606Z,25.32
2022-08-26T12:20:47.621Z,24.87
2022-08-26T12:23:45.393Z,26.28
2022-08-26T12:26:29.200Z,24.72
2022-08-26T12:29:18.086Z,25.82
2022-08-26T12:31:47.433Z,25.23
2022-08-26T12:34:18.631Z,25.08
2022-08-26T12:36:55.082Z,24.93
2022-08-26T12:39:37.249Z,24.83
2022-08-26T12:42:20.160Z,24.61
2022-08-26T12:44:53.934Z,24.82
2022-08-26T12:47:32.704Z,25.08
2022-08-26T12:50:43.931Z,24.38
2022-08-26T12:53:10.339Z,24.08
2022-08-26T12:56:24.074Z,24.34
2022-08-26T12:59:10.300Z,24.60
2022-08-26T13:01:42.342Z,24.87
2022-08-26T13:04:45.508Z,25.18
2022-08-26T13:07:23.625Z,25.03
2022-08-26T13:09:52.420Z,26.02
2022-08-26T13:12:34.280Z,25.98
2022-08-26T13:15:01.771Z,26.09
2022-08-26T13:17:29.172Z,27.21
2022-08-26T13:20:02.731Z,27.09
2022-08-26T13:22:30.786Z,27.64
2022-08-26T13:24:57.346Z,27.54
2022-08-26T13:27:26.471Z,27.17
2022-08-26T13:29:54.169Z,27.87
2022-08-26T13:32:21.883Z,27.89
2022-08-26T13:34:51.463Z,27.46
2022-08-26T13:37:21.565Z,28.07
2022-08-26T13:40:00.631Z,27.61
2022-08-26T13:42:27.267Z,27.55
2022-08-26T13:44:57.353Z,27.53
2022-08-26T13:47:25.221Z,27.69
2022-08-26T13:49:53.721Z,27.69
2022-08-26T13:52:27.294Z,27.85
2022-08-26T13:54:59.452Z,28.32
2022-08-26T13:57:27.616Z,28.55
2022-08-26T13:59:55.849Z,28.39
2022-08-26T14:02:22.359Z,28.71
2022-08-26T14:04:48.758Z,28.64
2022-08-26T14:07:15.678Z,28.53
2022-08-26T14:09:41.950Z,28.89
2022-08-26T14:12:08.444Z,28.70
2022-08-26T14:14:34.883Z,29.26
2022-08-26T14:17:01.486Z,30.09
2022-08-26T14:19:29.378Z,30.43
2022-08-26T14:21:56.397Z,30.15
2022-08-26T14:24:23.093Z,30.42
2022-08-26T14:26:49.718Z,29.54
2022-08-26T14:29:16.805Z,28.92
2022-08-26T14:31:44.917Z,29.29
2022-08-26T14:34:12.415Z,29.35
2022-08-26T14:36:38.743Z,29.50
2022-08-26T14:39:08.795Z,29.25
2022-08-26T14:41:40.902Z,29.43
2022-08-26T14:44:10.761Z,29.55
2022-08-26T14:46:42.517Z,29.55
2022-08-26T14:49:10.669Z,29.63
2022-08-26T14:51:37.994Z,29.62
2022-08-26T14:54:14.112Z,29.19
2022-08-26T14:56:42.629Z,29.04
2022-08-26T14:59:09.719Z,29.10
2022-08-26T15:01:36.327Z,28.59
2022-08-26T15:04:02.956Z,28.54
2022-08-26T15:06:31.192Z,28.94
2022-08-26T15:08:58.344Z,29.11
2022-08-26T15:11:24.860Z,29.54
2022-08-26T15:13:52.404Z,29.54
2022-08-26T15:16:18.800Z,29.56
2022-08-26T15:18:45.273Z,29.40
2022-08-26T15:21:11.820Z,29.47
2022-08-26T15:23:38.769Z,29.67
2022-08-26T15:26:10.619Z,30.42
2022-08-26T15:28:37.963Z,30.00
2022-08-26T15:31:05.962Z,29.83
2022-08-26T15:33:34.380Z,30.52
2022-08-26T15:36:01.677Z,30.40
2022-08-26T15:38:33.036Z,30.06
2022-08-26T15:41:03.145Z,30.05
2022-08-26T15:43:30.471Z,30.47
2022-08-26T15:45:57.081Z,30.77
2022-08-26T15:48:24.125Z,30.76
2022-08-26T15:50:56.649Z,30.93
2022-08-26T15:53:23.849Z,31.25
2022-08-26T15:55:53.290Z,32.02
2022-08-26T15:58:22.312Z,31.33
2022-08-26T16:00:48.596Z,31.82
2022-08-26T16:03:14.941Z,31.50
2022-08-26T16:05:45.276Z,31.84
2022-08-26T16:08:13.367Z,31.86
2022-08-26T16:10:47.774Z,31.99
2022-08-26T16:13:18.420Z,31.96
2022-08-26T16:15:45.510Z,32.81
2022-08-26T16:18:13.228Z,32.34
2022-08-26T16:20:50.134Z,32.50
2022-08-26T16:23:34.688Z,32.62
2022-08-26T16:26:08.264Z,32.97
2022-08-26T16:28:37.882Z,33.44
2022-08-26T16:31:05.877Z,34.20
2022-08-26T16:33:32.723Z,34.42
2022-08-26T16:35:59.052Z,34.45
2022-08-26T16:38:25.775Z,34.87
2022-08-26T16:40:52.740Z,35.09
2022-08-26T16:43:19.150Z,35.27
2022-08-26T16:45:45.537Z,35.68
2022-08-26T16:48:12.104Z,35.89
2022-08-26T16:50:40.138Z,35.67
2022-08-26T16:53:07.487Z,36.18
2022-08-26T16:55:34.736Z,36.13
2022-08-26T16:58:01.753Z,36.52
2022-08-26T17:00:30.807Z,36.83
2022-08-26T17:02:58.653Z,36.91
2022-08-26T17:05:26.348Z,36.64
2022-08-26T17:07:54.721Z,37.03
2022-08-26T17:10:22.633Z,37.16
2022-08-26T17:12:49.610Z,37.60
2022-08-26T17:15:17.137Z,37.70
2022-08-26T17:17:44.254Z,38.44
2022-08-26T17:20:13.773Z,38.21
2022-08-26T17:22:46.608Z,38.23
2022-08-26T17:25:23.769Z,38.67
2022-08-26T17:27:50.306Z,38.76
2022-08-26T17:30:17.648Z,39.07
2022-08-26T17:32:45.795Z,39.56
2022-08-26T17:35:13.459Z,40.33
2022-08-26T17:37:40.258Z,41.98
2022-08-26T17:40:09.436Z,42.21
2022-08-26T17:42:37.479Z,43.09
2022-08-26T17:45:05.401Z,42.32
2022-08-26T17:47:33.338Z,42.61
2022-08-26T17:50:00.738Z,42.68
2022-08-26T17:52:28.548Z,43.52
2022-08-26T17:54:55.679Z,45.11
2022-08-26T17:57:23.295Z,46.82
2022-08-26T17:59:49.982Z,46.77
2022-08-26T18:02:20.411Z,47.01
2022-08-26T18:04:46.936Z,47.38
2022-08-26T18:07:13.430Z,48.45
2022-08-26T18:09:40.726Z,48.25
2022-08-26T18:12:09.731Z,49.44
2022-08-26T18:14:36.718Z,48.66
2022-08-26T18:17:03.408Z,48.77
2022-08-26T18:19:30.691Z,48.77
2022-08-26T18:21:57.297Z,50.96
2022-08-26T18:24:24.816Z,50.88
2022-08-26T18:26:51.314Z,50.43
2022-08-26T18:29:18.978Z,52.73
2022-08-26T18:31:47.733Z,53.84
2022-08-26T18:34:15.964Z,54.54
2022-08-26T18:36:43.406Z,55.07
2022-08-26T18:39:12.000Z,55.48
2022-08-26T18:41:49.893Z,54.07
2022-08-26T18:44:18.007Z,53.11
2022-08-26T18:46:45.616Z,54.36
2022-08-26T18:49:13.760Z,54.67
2022-08-26T18:51:40.767Z,56.04
2022-08-26T18:54:07.704Z,57.12
2022-08-26T18:56:36.073Z,57.81
2022-08-26T18:59:03.912Z,57.98
2022-08-26T19:01:31.023Z,58.40
2022-08-26T19:03:59.026Z,58.08
2022-08-26T19:06:26.856Z,57.69
2022-08-26T19:08:53.610Z,57.17
2022-08-26T19:11:31.566Z,57.69
2022-08-26T19:14:00.690Z,58.95
2022-08-26T19:16:28.136Z,59.59
2022-08-26T19:18:55.384Z,60.95
2022-08-26T19:21:22.540Z,61.71
2022-08-26T19:23:49.432Z,61.48
2022-08-26T19:26:16.515Z,60.56
2022-08-26T19:28:43.109Z,60.05
2022-08-26T19:31:11.957Z,57.57
2022-08-26T19:33:39.873Z,57.22
2022-08-26T19:36:11.453Z,57.53
2022-08-26T19:38:41.726Z,58.26
2022-08-26T19:41:20.595Z,61.13
2022-08-26T19:43:47.259Z,62.47
2022-08-26T19:46:19.856Z,61.56
2022-08-26T19:48:47.478Z,60.78
2022-08-26T19:51:18.335Z,59.68
2022-08-26T19:53:46.086Z,58.34
2022-08-26T19:56:13.396Z,57.52
2022-08-26T19:58:40.269Z,58.57
2022-08-26T20:01:07.711Z,61.38
2022-08-26T20:03:35.615Z,63.05
2022-08-26T20:06:03.246Z,62.28
2022-08-26T20:08:29.767Z,61.44
2022-08-26T20:10:59.301Z,61.44
2022-08-26T20:13:25.595Z,60.70
2022-08-26T20:15:52.012Z,60.47
2022-08-26T20:18:36.981Z,60.42
2022-08-26T20:21:22.138Z,60.10
2022-08-26T20:23:50.759Z,59.89
2022-08-26T20:26:17.838Z,60.00
2022-08-26T20:28:44.474Z,59.78
2022-08-26T20:31:10.966Z,58.30
2022-08-26T20:33:46.380Z,57.65
2022-08-26T20:36:14.650Z,58.12
2022-08-26T20:38:41.063Z,60.72
2022-08-26T20:41:07.546Z,62.61
2022-08-26T20:43:34.001Z,62.33
2022-08-26T20:46:00.952Z,62.17
2022-08-26T20:48:27.816Z,62.11
2022-08-26T20:51:01.012Z,61.41
2022-08-26T20:53:28.725Z,61.17
2022-08-26T20:55:59.710Z,60.98
2022-08-26T20:58:26.132Z,60.45
2022-08-26T21:00:52.485Z,60.45
2022-08-26T21:03:18.959Z,59.39
2022-08-26T21:05:45.476Z,58.05
2022-08-26T21:08:12.593Z,60.49
2022-08-26T21:10:39.132Z,61.21
2022-08-26T21:13:06.133Z,61.60
2022-08-26T21:15:32.987Z,61.90
2022-08-26T21:18:00.035Z,60.83
2022-08-26T21:20:26.345Z,60.78
2022-08-26T21:22:52.875Z,60.52
2022-08-26T21:25:19.413Z,60.45
2022-08-26T21:27:47.754Z,60.26
2022-08-26T21:30:15.380Z,59.05
2022-08-26T21:32:41.878Z,58.06
2022-08-26T21:35:09.845Z,58.75
2022-08-26T21:37:36.181Z,61.22
2022-08-26T21:40:04.414Z,63.11
2022-08-26T21:42:32.696Z,62.98
2022-08-26T21:44:59.883Z,63.21
2022-08-26T21:47:26.316Z,63.02
2022-08-26T21:49:53.030Z,61.86
2022-08-26T21:52:20.773Z,62.58
2022-08-26T21:54:49.271Z,62.27
2022-08-26T21:57:16.874Z,62.57
2022-08-26T21:59:43.157Z,62.57
2022-08-26T22:02:10.979Z,62.26
2022-08-26T22:04:37.593Z,61.89
2022-08-26T22:07:04.313Z,61.98
2022-08-26T22:09:31.128Z,62.03
2022-08-26T22:11:58.372Z,62.11
2022-08-26T22:14:29.847Z,62.21
2022-08-26T22:16:58.247Z,62.06
2022-08-26T22:19:25.685Z,61.86
2022-08-26T22:21:53.706Z,61.99
2022-08-26T22:24:22.875Z,62.25
2022-08-26T22:26:49.382Z,61.84
2022-08-26T22:29:16.732Z,61.52
2022-08-26T22:31:43.232Z,61.51
2022-08-26T22:34:12.133Z,61.65
2022-08-26T22:36:43.045Z,61.86
2022-08-26T22:39:16.239Z,62.12
2022-08-26T22:41:43.565Z,62.71
2022-08-26T22:44:11.002Z,62.42
2022-08-26T22:46:37.924Z,62.48
2022-08-26T22:49:05.771Z,62.56
2022-08-26T22:51:32.591Z,62.28
2022-08-26T22:53:58.880Z,62.44
2022-08-26T22:56:25.652Z,62.56
2022-08-26T22:58:52.014Z,62.89
2022-08-26T23:01:18.455Z,62.84
2022-08-26T23:03:45.296Z,62.71
2022-08-26T23:06:11.811Z,62.59
2022-08-26T23:08:38.790Z,62.48
2022-08-26T23:11:09.760Z,62.55
2022-08-26T23:13:36.524Z,62.51
2022-08-26T23:16:06.696Z,62.19
2022-08-26T23:18:33.116Z,61.88
2022-08-26T23:20:59.421Z,61.65
2022-08-26T23:23:26.982Z,61.89
2022-08-26T23:25:55.734Z,61.95
2022-08-26T23:28:22.677Z,61.59
2022-08-26T23:30:49.407Z,61.87
2022-08-26T23:33:15.846Z,62.56
2022-08-26T23:35:42.165Z,63.06
2022-08-26T23:38:09.218Z,63.22
2022-08-26T23:40:38.134Z,63.21
2022-08-26T23:43:06.794Z,63.03
2022-08-26T23:45:33.963Z,63.51
2022-08-26T23:48:00.687Z,63.72
2022-08-26T23:50:48.199Z,63.52
2022-08-26T23:53:19.237Z,63.25
2022-08-26T23:55:48.947Z,63.29
2022-08-26T23:58:16.937Z,63.25
